• Join FlightAware (Why Join?)
  • Login
  • US Flag 
01:31AM EDT


 

Airport Tracker/Info


-or-


 

Live Flight TrackerFlight Track Log ✈ DAL268 ✈ 19-Jun-2013 ✈ KJFK - LLBG / TLV

Flight Track Log - Related Links

Times and Time Zones

All times are in EDT time to prevent confusion due to time zone crossing. See the DAL268 flight status page for this flight to view local times or setup timezone preferences in your user account.

Time Position Orientation Groundspeed Altitude Reporting Facility
EDT Latitude Longitude Course Direction KTS MPH feet Rate Location/Type
11:46PM 40.6300 -73.7800 North 11 13  Level FlightAware
11:47PM 40.6300 -73.7790 90° East 11 13  Level FlightAware
11:49PM 40.5941 -73.4263 108° East  Level FlightAware Approximate
11:50PM 40.5749 -73.2498 123° Southeast  Level FlightAware Approximate
11:51PM 40.5520 -73.0721 97° East  Level FlightAware Approximate
11:52PM 40.5714 -72.8977 72° East  Level FlightAware Approximate
11:52PM 40.6300 -73.7800 66° East  Level FlightAware
11:53PM 40.6236 -72.7291 66° East  Level FlightAware Approximate
11:54PM 40.6290 -73.7800 108° East 19 22  Level FlightAware
11:55PM 40.5858 -73.3931 108° East  Level FlightAware Approximate
11:55PM 40.6290 -73.7790 90° East 12 14  Level FlightAware
11:55PM 40.6290 -73.7800 270° West  Level FlightAware
11:56PM 40.6280 -73.7800 180° South 15 17  Level FlightAware
11:57PM 40.6280 -73.7790 90° East 18 21  Level FlightAware
11:57PM 40.6270 -73.7800 217° Southwest 25 29  Level FlightAware
11:57PM 40.6260 -73.7800 180° South 28 32  Level FlightAware
11:58PM 40.6280 -73.7840 303° West 32 37  Level FlightAware
11:58PM 40.6280 -73.7850 270° West 34 39  Level FlightAware
11:59PM 40.6280 -73.7860 270° West 34 39  Level FlightAware
11:59PM 40.6290 -73.7870 323° Northwest 30 35  Level FlightAware
11:59PM 40.6300 -73.7880 323° Northwest 25 29  Level FlightAware
11:59PM 40.6300 -73.7890 270° West 25 29  Level FlightAware
12:00AM 40.6300 -73.7900 270° West 27 31  Level FlightAware
12:00AM 40.6310 -73.7910 323° Northwest 29 33  Level FlightAware
12:01AM 40.6320 -73.7930 303° West 23 26  Level FlightAware
12:01AM 40.6320 -73.7940 270° West 24 28  Level FlightAware
12:01AM 40.6330 -73.7950 323° Northwest 23 26  Level FlightAware
12:02AM 40.6330 -73.7960 270° West 15 17  Level FlightAware
12:02AM 40.6330 -73.7970 270° West 20 23  Level FlightAware
12:03AM 40.6340 -73.7980 323° Northwest 26 30  Level FlightAware
12:03AM 40.6340 -73.8000 270° West 31 36  Level FlightAware
12:04AM 40.6360 -73.8020 323° Northwest 34 39  Level FlightAware
12:04AM 40.6360 -73.8030 270° West 15 17  Level FlightAware
12:04AM 40.6360 -73.8040 270° West 24 28  Level FlightAware
12:05AM 40.6370 -73.8060 303° West 28 32  Level FlightAware
12:05AM 40.6380 -73.8080 303° West 26 30  Level FlightAware
12:06AM 40.6400 -73.8110 311° West 34 39  Level FlightAware
12:07AM 40.6420 -73.8140 311° West 28 32  Level FlightAware
12:07AM 40.6410 -73.8140 180° South 22 25  Level FlightAware
12:08AM 40.6420 -73.8170 294° West 16 18  Level FlightAware
12:10AM 40.6410 -73.8180 217° Southwest 21 24  Level FlightAware
12:13AM 40.8320 -73.4670 90° East  Level Estimated
12:14AM 40.9124 -73.3181 97° East  Level Estimated
12:15AM 40.9926 -73.1688 90° East  Level Estimated
12:15AM 40.6380 -73.8110 90° East 86 99  Level FlightAware
12:15AM 40.6280 -73.7900 122° Southeast 175 201 420 Level FlightAware
12:16AM 40.6160 -73.7640 121° Southeast 186 214 400 1,260 Climbing FlightAware
12:16AM 40.5960 -73.7430 141° Southeast 190 219 1,200 1,740 Climbing FlightAware
12:16AM 40.5880 -73.7330 136° Southeast 192 221 1,600 1,500 Climbing FlightAware
12:17AM 40.5700 -73.7070 132° Southeast 196 226 2,300 1,380 Climbing FlightAware
12:17AM 40.5670 -73.6930 106° East 197 227 2,600 1,620 Climbing FlightAware
12:17AM 40.5670 -73.6800 90° East 198 228 2,900 1,140 Climbing FlightAware
12:18AM 40.5660 -73.6410 92° East 219 252 3,400 720 Climbing FlightAware
12:18AM 40.5650 -73.6070 92° East 245 282 3,600 660 Climbing FlightAware
12:19AM 40.5640 -73.5560 91° East 274 315 4,100 960 Climbing FlightAware
12:19AM 40.5636 -73.5259 91° East 288 331 4,400 1,680 Climbing FlightAware ADS-B
12:19AM 40.5632 -73.4859 91° East 295 339 5,200 2,100 Climbing FlightAware ADS-B
12:20AM 40.5627 -73.4570 91° East 299 344 5,800 2,100 Climbing FlightAware ADS-B
12:20AM 40.5620 -73.4294 92° East 303 349 6,300 2,160 Climbing FlightAware ADS-B
12:20AM 40.5613 -73.4007 92° East 307 353 6,900 2,280 Climbing FlightAware ADS-B
12:20AM 40.5605 -73.3718 92° East 309 356 7,500 2,280 Climbing FlightAware ADS-B
12:21AM 40.5596 -73.3422 92° East 312 359 8,100 2,160 Climbing FlightAware ADS-B
12:21AM 40.5588 -73.3134 92° East 315 362 8,600 1,980 Climbing FlightAware ADS-B
12:21AM 40.5579 -73.2842 92° East 318 366 9,100 2,100 Climbing FlightAware ADS-B
12:21AM 40.5570 -73.2538 92° East 322 371 9,700 1,500 Climbing FlightAware ADS-B
12:22AM 40.5553 -73.1914 92° East 344 396 10,300 1,080 Climbing FlightAware ADS-B
12:22AM 40.5538 -73.1262 92° East 366 421 10,800 960 Climbing FlightAware ADS-B
12:23AM 40.5524 -73.0547 91° East 394 453 11,300 1,020 Climbing FlightAware ADS-B
12:23AM 40.5556 -73.0032 85° East 409 471 11,700 1,380 Climbing FlightAware ADS-B
12:24AM 40.5711 -72.9307 74° East 423 487 12,500 1,800 Climbing FlightAware ADS-B
12:24AM 40.5944 -72.8416 71° East 430 495 13,700 1,980 Climbing FlightAware ADS-B
12:25AM 40.6220 -72.7360 71° East 443 510 15,200 2,040 Climbing FlightAware
12:26AM 40.6510 -72.6220 71° East 453 521 16,700 1,980 Climbing FlightAware
12:26AM 40.6780 -72.5110 72° East 464 534 18,000 1,740 Climbing FlightAware
12:27AM 40.7070 -72.3960 72° East 474 545 19,200 1,680 Climbing FlightAware
12:28AM 40.7360 -72.2800 72° East 483 556 20,400 1,620 Climbing FlightAware
12:29AM 40.7660 -72.1590 72° East 493 567 21,500 1,440 Climbing FlightAware
12:29AM 40.7950 -72.0410 72° East 503 579 22,400 1,320 Climbing FlightAware
12:30AM 40.8190 -71.9434 72° East 512 589 23,200 720 Climbing FlightAware ADS-B
12:31AM 40.8510 -71.8150 72° East 514 592 23,400 1,200 Climbing FlightAware
12:31AM 40.8850 -71.6730 72° East 530 610 25,000 1,200 Climbing FlightAware
12:32AM 40.9110 -71.5680 72° East 530 610 25,000 1,080 Level FlightAware
12:33AM 40.9790 -71.2800 73° East 553 636 27,400 1,020 Climbing FlightAware
12:34AM 41.0120 -71.1460 72° East 553 636 27,400 900 Level FlightAware
12:35AM 41.1060 -70.9290 60° Northeast 565 650 29,100 1,320 Climbing FlightAware
12:37AM 41.2400 -70.6920 53° Northeast 568 654 30,700 960 Climbing FlightAware
12:37AM 41.3090 -70.5700 53° Northeast 572 658 31,300 840 Climbing FlightAware
12:38AM 41.4030 -70.4050 53° Northeast 578 665 32,100 420 Climbing FlightAware
12:39AM 41.4860 -70.2560 53° Northeast 577 664 32,100  Level FlightAware
12:40AM 41.5520 -70.1400 53° Northeast 577 664 32,100  Level FlightAware
12:41AM 41.6320 -69.9840 56° Northeast 573 659 32,100  Level FlightAware
12:42AM 41.7010 -69.8540 55° Northeast 573 659 32,100  Level FlightAware
12:42AM 41.7500 -69.7610 55° Northeast 574 661 32,100  Level FlightAware
12:43AM 41.8290 -69.6120 55° Northeast 575 662 32,100  Level FlightAware
12:44AM 41.8890 -69.4960 55° Northeast 577 664 32,100  Level FlightAware
12:44AM 41.9510 -69.3760 55° Northeast 578 665 32,100  Level FlightAware
12:45AM 42.0300 -69.2240 55° Northeast 576 663 32,100  Level FlightAware
12:46AM 42.1000 -69.0890 55° Northeast 575 662 32,100  Level FlightAware
12:46AM 42.1520 -68.9870 55° Northeast 576 663 32,100  Level FlightAware
12:47AM 42.2220 -68.8510 55° Northeast 577 664 32,100  Level FlightAware
12:48AM 42.2820 -68.7330 55° Northeast 578 665 32,100  Level FlightAware
12:48AM 42.3370 -68.6230 56° Northeast 580 667 32,100  Level FlightAware
12:49AM 42.4360 -68.4290 55° Northeast 580 667 32,100  Level FlightAware
12:50AM 42.4890 -68.3210 56° Northeast 580 667 32,100  Level FlightAware
12:51AM 42.5370 -68.2260 56° Northeast 580 667 32,100  Level FlightAware
12:52AM 42.5980 -68.1030 56° Northeast 580 667 32,100  Level FlightAware
12:52AM 42.6440 -68.0100 56° Northeast 580 667 32,100  Level FlightAware
12:53AM 42.7060 -67.8840 56° Northeast 580 667 32,100  Level FlightAware
12:54AM 42.7500 -67.7970 55° Northeast 580 667 32,100  Level FlightAware
12:54AM 42.8120 -67.6700 56° Northeast 580 667 32,100  Level FlightAware
12:55AM 42.8710 -67.5520 56° Northeast 580 667 32,100  Level FlightAware
12:56AM 42.9180 -67.4560 56° Northeast 580 667 32,100 720 Level FlightAware
12:57AM 43.0730 -67.1410 56° Northeast 589 678 33,100 720 Climbing FlightAware
12:57AM 43.1330 -67.0170 56° Northeast 589 678 33,100  Level FlightAware
12:58AM 43.2120 -66.8490 57° Northeast 585 673 33,100  Level FlightAware
12:59AM 43.2810 -66.7000 58° Northeast 585 673 33,100  Level FlightAware
12:59AM 43.3380 -66.5770 57° Northeast 587 676 33,100  Level FlightAware
01:01AM 43.4230 -66.3910 58° Northeast 586 674 33,100  Level FlightAware
01:01AM 43.4860 -66.2550 57° Northeast 586 674 33,100  Level FlightAware
01:02AM 43.5450 -66.1260 58° Northeast 587 676 33,100  Level FlightAware
01:03AM 43.6110 -65.9820 58° Northeast 587 676 33,100  Level FlightAware
01:03AM 43.6700 -65.8520 58° Northeast 587 676 33,100  Level FlightAware
01:04AM 43.7250 -65.7280 58° Northeast 591 680 33,100  Level FlightAware
01:05AM 43.7840 -65.5970 58° Northeast 591 680 33,100  Level FlightAware
01:05AM 43.8470 -65.4530 59° Northeast 592 681 33,100  Level FlightAware
01:06AM 43.9060 -65.3220 58° Northeast 591 680 33,100  Level FlightAware
01:07AM 43.9710 -65.1750 58° Northeast 592 681 33,100  Level FlightAware
01:07AM 44.0280 -65.0440 59° Northeast 593 682 33,100  Level FlightAware
01:08AM 44.0940 -64.8940 58° Northeast 593 682 33,100  Level FlightAware
01:09AM 44.1470 -64.7730 59° Northeast 594 684 33,100  Level FlightAware
01:10AM 44.2070 -64.6350 59° Northeast 592 681 33,100  Level FlightAware
01:10AM 44.2640 -64.5040 59° Northeast 593 682 33,100  Level FlightAware
01:11AM 44.3050 -64.4090 59° Northeast 592 681 33,100  Level FlightAware
01:12AM 44.4020 -64.1840 59° Northeast 592 681 33,100  Level FlightAware
01:12AM 44.4580 -64.0520 59° Northeast 592 681 33,100  Level FlightAware
01:13AM 44.5150 -63.9180 59° Northeast 591 680 33,100  Level FlightAware
01:14AM 44.5800 -63.7640 59° Northeast 592 681 33,100  Level FlightAware
01:15AM 44.6360 -63.6300 60° Northeast 592 681 33,100  Level FlightAware
01:15AM 44.6840 -63.5160 59° Northeast 593 682 33,100  Level FlightAware
01:16AM 44.7410 -63.3770 60° Northeast 592 681 33,100  Level FlightAware
01:17AM 44.7990 -63.2370 60° Northeast 593 682 33,100  Level FlightAware
01:18AM 44.8790 -63.0430 60° Northeast 595 685 33,100  Level FlightAware
01:18AM 44.9070 -62.9740 60° Northeast 595 685 33,100  Level FlightAware
01:19AM 44.9520 -62.8660 59° Northeast 595 685 33,100  Level FlightAware
01:19AM 45.0060 -62.7340 60° Northeast 595 685 33,100  Level FlightAware
01:21AM 45.0830 -62.5440 60° Northeast 595 685 33,100  Level FlightAware
01:21AM 45.1410 -62.4010 60° Northeast 595 685 33,100  Level FlightAware
01:22AM 45.1860 -62.2920 60° Northeast 595 685 33,100  Level FlightAware
01:23AM 45.2280 -62.1880 60° Northeast 595 685 33,100  Level FlightAware
01:23AM 45.2840 -62.0500 60° Northeast 595 685 33,100  Level FlightAware
01:24AM 45.3270 -61.9430 60° Northeast 595 685 33,100  Level FlightAware
01:25AM 45.3830 -61.8050 60° Northeast 595 685 33,100  Level FlightAware
01:26AM 45.4290 -61.6920 60° Northeast 595 685 33,100  Level FlightAware
01:26AM 45.4730 -61.5820 60° Northeast 595 685 33,100  Level FlightAware
01:27AM 45.5320 -61.4380 60° Northeast 595 685 33,100  Level FlightAware
01:28AM 45.7080 -60.9420 63° Northeast 608 700 33,100  Level FlightAware
01:28AM 45.7620 -60.8000 61° Northeast 608 700 33,100  Level FlightAware
01:29AM 45.8130 -60.6640 62° Northeast 609 701 33,100  Level FlightAware
01:30AM 45.8760 -60.4970 62° Northeast 610 702 33,100  Level FlightAware
01:30AM 45.9300 -60.3500 62° Northeast 610 702 33,100  Level FlightAware
01:31AM 45.9840 -60.2060 62° Northeast 611 703 33,100  Level FlightAware
01:32AM 46.0420 -60.0480 62° Northeast 612 704 33,100  Level FlightAware
01:33AM 46.0970 -59.8970 62° Northeast 613 705 33,100  Level FlightAware
01:33AM 46.1470 -59.7600 62° Northeast 614 707 33,100  Level FlightAware
01:34AM 46.2090 -59.5900 62° Northeast 616 709 33,100  Level FlightAware
01:35AM 46.2650 -59.4320 63° Northeast 618 711 33,100  Level FlightAware
01:36AM 46.3390 -59.2260 62° Northeast 619 712 33,100  Level FlightAware
01:37AM 46.4180 -59.0040 63° Northeast 619 712 33,100  Level FlightAware
01:38AM 46.4840 -58.8170 63° Northeast 622 716 33,100  Level FlightAware
01:38AM 46.5590 -58.6010 63° Northeast 622 716 33,100  Level FlightAware
01:39AM 46.6167 -58.3667 63° Northeast 620 713 33,100  Level Gander Center
01:45AM 46.9410 -57.4820 63° Northeast 628 723 33,100  Level FlightAware
01:47AM 46.9640 -57.4100 65° Northeast 628 723 33,100 480 Level FlightAware
01:47AM 47.2390 -56.5420 65° Northeast 639 735 34,100 660 Climbing FlightAware
01:48AM 47.2910 -56.3740 65° Northeast 637 733 34,100  Level FlightAware
01:49AM 47.3390 -56.2140 66° East 637 733 34,100  Level FlightAware
01:50AM 47.4090 -55.9820 66° East 638 734 34,100  Level FlightAware
01:51AM 47.4350 -55.8950 66° East 638 734 34,100  Level FlightAware
01:52AM 47.5140 -55.6290 66° East 641 738 34,100  Level FlightAware
01:53AM 47.6300 -55.2350 66° East 644 741 34,100  Level FlightAware
01:54AM 47.6800 -55.0630 67° East 646 743 34,100  Level FlightAware
01:54AM 47.7250 -54.9070 67° East 647 745 34,100  Level FlightAware
01:55AM 47.7950 -54.6610 67° East 648 746 34,100  Level FlightAware
01:56AM 47.8530 -54.4580 67° East 650 748 34,100  Level FlightAware
01:57AM 47.8990 -54.2920 67° East 649 747 34,100  Level FlightAware
01:57AM 47.9400 -54.1470 67° East 648 746 34,100  Level FlightAware
01:58AM 47.9950 -53.9460 68° East 647 745 34,100  Level FlightAware
01:59AM 48.0420 -53.7790 67° East 645 742 34,100  Level FlightAware
01:59AM 48.0910 -53.5970 68° East 646 743 34,100  Level FlightAware
02:01AM 48.1720 -53.3000 68° East 644 741 34,100  Level FlightAware
02:01AM 48.2160 -53.1360 68° East 643 740 34,100  Level FlightAware
02:02AM 48.2580 -52.9770 68° East 642 739 34,100  Level FlightAware
02:03AM 48.3100 -52.7810 68° East 641 738 34,100  Level FlightAware
02:03AM 48.3530 -52.6160 69° East 639 735 34,100  Level FlightAware
02:04AM 48.3990 -52.4400 68° East 637 733 34,100  Level FlightAware
02:05AM 48.4410 -52.2750 69° East 637 733 34,100  Level FlightAware
02:06AM 48.4860 -52.1000 69° East 638 734 34,100  Level FlightAware
02:06AM 48.5280 -51.9360 69° East 635 731 34,100  Level FlightAware
02:07AM 48.5730 -51.7560 69° East 633 728 34,100  Level FlightAware
02:08AM 48.6150 -51.5850 70° East 632 727 34,100  Level FlightAware
02:08AM 48.6600 -51.4040 69° East 631 726 34,100  Level FlightAware
02:09AM 48.7000 -51.2380 70° East 630 725 34,100  Level FlightAware
02:10AM 48.7410 -51.0700 70° East 628 723 34,100  Level FlightAware
02:11AM 48.8030 -50.8230 69° East 628 723 34,100  Level FlightAware
02:12AM 48.7800 -50.9140 249° West 628 723 34,100  Level FlightAware
02:12AM 48.8230 -50.7430 69° East 628 723 34,100 -120 Level FlightAware
02:13AM 48.7667 -51.0000 70° East 625 719 34,000  Descending ETMS Enhanced Traffic Management System
02:13AM 48.8540 -50.6200 69° East 628 723 34,100 60 Climbing FlightAware
02:14AM 48.8970 -50.4520 69° East 628 723 34,100  Level FlightAware
02:14AM 48.9280 -50.3260 69° East 628 723 34,100  Level FlightAware
02:15AM 48.9690 -50.1640 69° East 628 723 34,100  Level FlightAware
02:16AM 49.0200 -49.9640 69° East 628 723 34,100  Level FlightAware
02:17AM 49.0520 -49.8340 69° East 628 723 34,100 -120 Level FlightAware
02:18AM 49.0000 -50.0000 69° East 605 696 34,000  Descending ETMS Enhanced Traffic Management System
02:18AM 49.1070 -49.6150 69° East 628 723 34,100 120 Climbing FlightAware
02:18AM 49.1370 -49.4960 70° East 628 723 34,100  Level FlightAware
02:18AM 49.2500 -48.8833 69° East 620 713 34,100  Level Gander Center
02:19AM 49.1790 -49.3300 69° East 628 723 34,100  Level FlightAware
02:19AM 49.3000 -48.6333 73° East 620 713 34,100  Level Gander Center
02:20AM 49.2110 -49.2030 69° East 628 723 34,100  Level FlightAware
02:20AM 49.3500 -48.3833 73° East 620 713 34,100  Level Gander Center
02:20AM 49.2480 -49.0550 69° East 628 723 34,100  Level FlightAware
02:21AM 49.4167 -48.1333 68° East 620 713 34,100  Level Gander Center
02:22AM 49.4833 -47.8833 68° East 620 713 34,100  Level Gander Center
02:23AM 49.5333 -47.6333 73° East 610 702 34,100  Level Gander Center
02:24AM 49.6000 -47.3833 68° East 610 702 34,100 -60 Level Gander Center
02:27AM 49.6907 -46.9810 71° East  Level FlightAware Approximate
02:34AM 50.0212 -45.4453 71° East  Level FlightAware Approximate
02:35AM 50.0668 -45.2243 72° East  Level FlightAware Approximate
02:36AM 50.1119 -45.0028 72° East  Level FlightAware Approximate
02:37AM 50.1566 -44.7808 72° East  Level FlightAware Approximate
02:38AM 50.2009 -44.5585 73° East  Level FlightAware Approximate
02:39AM 50.2448 -44.3358 73° East  Level FlightAware Approximate
02:40AM 50.2872 -44.1181 73° East  Level FlightAware Approximate
02:41AM 50.3291 -43.9001 73° East  Level FlightAware Approximate
02:42AM 50.3707 -43.6816 73° East  Level FlightAware Approximate
02:43AM 50.4118 -43.4628 73° East  Level FlightAware Approximate
02:44AM 50.4526 -43.2436 74° East  Level FlightAware Approximate
02:45AM 50.4929 -43.0241 74° East  Level FlightAware Approximate
02:46AM 50.5328 -42.8041 74° East  Level FlightAware Approximate
02:47AM 50.5723 -42.5838 74° East  Level FlightAware Approximate
02:48AM 50.6114 -42.3631 74° East  Level FlightAware Approximate
02:49AM 50.6500 -42.1421 74° East  Level FlightAware Approximate
02:50AM 50.6883 -41.9207 75° East  Level FlightAware Approximate
02:51AM 50.7261 -41.6989 75° East  Level FlightAware Approximate
02:52AM 50.7635 -41.4768 75° East  Level FlightAware Approximate
02:53AM 50.8005 -41.2543 75° East  Level FlightAware Approximate
02:54AM 50.8370 -41.0315 75° East  Level FlightAware Approximate
02:55AM 50.8731 -40.8084 76° East  Level FlightAware Approximate
02:56AM 50.9088 -40.5849 76° East  Level FlightAware Approximate
02:56AM 51.0000 -40.0000 86° East 595 685 34,000  Level ETMS Enhanced Traffic Management System
02:57AM 50.9441 -40.3610 76° East  Level FlightAware Approximate
02:58AM 50.9789 -40.1372 76° East  Level FlightAware Approximate
02:59AM 51.0038 -39.9107 86° East  Level FlightAware Approximate
03:00AM 51.0132 -39.6805 86° East  Level FlightAware Approximate
03:01AM 51.0222 -39.4501 86° East  Level FlightAware Approximate
03:02AM 51.0710 -37.8977 88° East 595 685 34,000  Level FlightAware Transoceanic
03:03AM 51.0772 -37.6345 88° East 595 685 34,000  Level FlightAware Transoceanic
03:04AM 51.0828 -37.3713 88° East 595 685 34,000  Level FlightAware Transoceanic
03:05AM 51.0878 -37.1079 88° East 595 685 34,000  Level FlightAware Transoceanic
03:06AM 51.0923 -36.8446 89° East 595 685 34,000  Level FlightAware Transoceanic
03:07AM 51.0961 -36.5811 89° East 595 685 34,000  Level FlightAware Transoceanic
03:08AM 51.0994 -36.3177 89° East 595 685 34,000  Level FlightAware Transoceanic
03:09AM 51.1021 -36.0542 89° East 595 685 34,000  Level FlightAware Transoceanic
03:10AM 51.1041 -35.7907 89° East 595 685 34,000  Level FlightAware Transoceanic
03:11AM 51.1056 -35.5271 90° East 595 685 34,000  Level FlightAware Transoceanic
03:12AM 51.1065 -35.2636 90° East 595 685 34,000  Level FlightAware Transoceanic
03:13AM 51.1068 -35.0000 90° East 595 685 34,000  Level FlightAware Transoceanic
03:14AM 51.1065 -34.7364 90° East 595 685 34,000  Level FlightAware Transoceanic
03:15AM 51.1056 -34.4729 90° East 595 685 34,000  Level FlightAware Transoceanic
03:16AM 51.1041 -34.2093 91° East 595 685 34,000  Level FlightAware Transoceanic
03:17AM 51.1021 -33.9458 91° East 595 685 34,000  Level FlightAware Transoceanic
03:18AM 51.0994 -33.6823 91° East 595 685 34,000  Level FlightAware Transoceanic
03:19AM 51.0961 -33.4189 91° East 595 685 34,000  Level FlightAware Transoceanic
03:20AM 51.0923 -33.1554 91° East 595 685 34,000  Level FlightAware Transoceanic
03:21AM 51.0878 -32.8921 92° East 595 685 34,000  Level FlightAware Transoceanic
03:22AM 51.0828 -32.6287 92° East 595 685 34,000  Level FlightAware Transoceanic
03:23AM 51.0772 -32.3655 92° East 595 685 34,000  Level FlightAware Transoceanic
03:24AM 51.0710 -32.1023 92° East 595 685 34,000  Level FlightAware Transoceanic
03:25AM 51.0642 -31.8392 92° East 595 685 34,000  Level FlightAware Transoceanic
03:26AM 51.0568 -31.5762 93° East 595 685 34,000  Level FlightAware Transoceanic
03:27AM 51.0488 -31.3132 93° East 595 685 34,000  Level FlightAware Transoceanic
03:28AM 51.0402 -31.0504 93° East 595 685 34,000  Level FlightAware Transoceanic
03:29AM 51.0310 -30.7876 93° East 595 685 34,000  Level FlightAware Transoceanic
03:30AM 51.0213 -30.5250 93° East 595 685 34,000  Level FlightAware Transoceanic
03:31AM 51.0109 -30.2624 94° East 595 685 34,000  Level FlightAware Transoceanic
03:32AM 51.0014 -30.0322 94° East  Level FlightAware Approximate
03:33AM 50.9914 -29.8020 94° East  Level FlightAware Approximate
03:34AM 51.0070 -29.8342 86° East  Level FlightAware Approximate
03:34AM 51.0000 -30.0000 86° East 565 650 34,000  Level ETMS Enhanced Traffic Management System
03:35AM 51.0163 -29.6039 86° East  Level FlightAware Approximate
03:36AM 51.0251 -29.3735 86° East  Level FlightAware Approximate
03:37AM 51.0335 -29.1430 87° East  Level FlightAware Approximate
03:38AM 51.0415 -28.9125 87° East  Level FlightAware Approximate
03:39AM 51.0489 -28.6819 87° East  Level FlightAware Approximate
03:40AM 51.0683 -28.0030 88° East 565 650 34,000  Level FlightAware Transoceanic
03:41AM 51.0745 -27.7530 88° East 565 650 34,000  Level FlightAware Transoceanic
03:42AM 51.0801 -27.5029 88° East 565 650 34,000  Level FlightAware Transoceanic
03:43AM 51.0851 -27.2528 88° East 565 650 34,000  Level FlightAware Transoceanic
03:44AM 51.0897 -27.0026 88° East 565 650 34,000  Level FlightAware Transoceanic
03:45AM 51.0937 -26.7524 89° East 565 650 34,000  Level FlightAware Transoceanic
03:46AM 51.0972 -26.5021 89° East 565 650 34,000  Level FlightAware Transoceanic
03:47AM 51.1001 -26.2518 89° East 565 650 34,000  Level FlightAware Transoceanic
03:48AM 51.1025 -26.0015 89° East 565 650 34,000  Level FlightAware Transoceanic
03:49AM 51.1044 -25.7511 89° East 565 650 34,000  Level FlightAware Transoceanic
03:50AM 51.1057 -25.5008 90° East 565 650 34,000  Level FlightAware Transoceanic
03:51AM 51.1065 -25.2504 90° East 565 650 34,000  Level FlightAware Transoceanic
03:52AM 51.1068 -25.0000 90° East 565 650 34,000  Level FlightAware Transoceanic
03:53AM 51.1065 -24.7496 90° East 565 650 34,000  Level FlightAware Transoceanic
03:54AM 51.1057 -24.4992 90° East 565 650 34,000  Level FlightAware Transoceanic
03:55AM 51.1044 -24.2489 91° East 565 650 34,000  Level FlightAware Transoceanic
03:56AM 51.1025 -23.9985 91° East 565 650 34,000  Level FlightAware Transoceanic
03:57AM 51.1001 -23.7482 91° East 565 650 34,000  Level FlightAware Transoceanic
03:58AM 51.0972 -23.4979 91° East 565 650 34,000  Level FlightAware Transoceanic
03:59AM 51.0937 -23.2476 91° East 565 650 34,000  Level FlightAware Transoceanic
04:00AM 51.0897 -22.9974 92° East 565 650 34,000  Level FlightAware Transoceanic
04:01AM 51.0851 -22.7472 92° East 565 650 34,000  Level FlightAware Transoceanic
04:02AM 51.0801 -22.4971 92° East 565 650 34,000  Level FlightAware Transoceanic
04:03AM 51.0745 -22.2470 92° East 565 650 34,000  Level FlightAware Transoceanic
04:04AM 51.0683 -21.9970 92° East 565 650 34,000  Level FlightAware Transoceanic
04:05AM 51.0616 -21.7471 93° East 565 650 34,000  Level FlightAware Transoceanic
04:06AM 51.0544 -21.4973 93° East 565 650 34,000  Level FlightAware Transoceanic
04:07AM 51.0467 -21.2475 93° East 565 650 34,000  Level FlightAware Transoceanic
04:08AM 51.0384 -20.9978 93° East 565 650 34,000  Level FlightAware Transoceanic
04:09AM 51.0296 -20.7482 93° East 565 650 34,000  Level FlightAware Transoceanic
04:10AM 51.0203 -20.4987 94° East 565 650 34,000  Level FlightAware Transoceanic
04:11AM 51.0104 -20.2493 94° East 565 650 34,000 60 Level FlightAware Transoceanic
04:12AM 51.0008 -20.0191 94° East  Level FlightAware Approximate
04:13AM 50.9908 -19.7889 94° East  Level FlightAware Approximate
04:14AM 50.9791 -19.8104 100° East  Level FlightAware Approximate
04:15AM 50.9535 -19.5831 100° East  Level FlightAware Approximate
04:16AM 50.9275 -19.3560 100° East  Level FlightAware Approximate
04:17AM 50.9011 -19.1292 100° East  Level FlightAware Approximate
04:18AM 50.8742 -18.9026 101° East  Level FlightAware Approximate
04:19AM 50.8469 -18.6763 101° East  Level FlightAware Approximate
04:20AM 50.8192 -18.4502 101° East  Level FlightAware Approximate
04:21AM 50.7910 -18.2244 101° East  Level FlightAware Approximate
04:22AM 50.7624 -17.9989 101° East  Level FlightAware Approximate
04:23AM 50.7333 -17.7737 101° East  Level FlightAware Approximate
04:24AM 50.7039 -17.5487 102° East  Level FlightAware Approximate
04:25AM 50.6740 -17.3241 102° East  Level FlightAware Approximate
04:26AM 50.6436 -17.0997 102° East  Level FlightAware Approximate
04:27AM 50.6128 -16.8756 102° East  Level FlightAware Approximate
04:28AM 50.5816 -16.6518 102° East  Level FlightAware Approximate
04:29AM 50.5500 -16.4283 102° East  Level FlightAware Approximate
04:30AM 50.5179 -16.2051 103° East  Level FlightAware Approximate
04:31AM 50.4855 -15.9822 103° East  Level FlightAware Approximate
04:32AM 50.4526 -15.7597 103° East  Level FlightAware Approximate
04:33AM 50.4192 -15.5374 103° East  Level FlightAware Approximate
04:34AM 50.3855 -15.3154 103° East  Level FlightAware Approximate
04:35AM 50.3513 -15.0938 104° East  Level FlightAware Approximate
04:36AM 50.3167 -14.8725 104° East  Level FlightAware Approximate
04:37AM 50.2817 -14.6515 104° East  Level FlightAware Approximate
04:38AM 50.2462 -14.4309 104° East  Level FlightAware Approximate
04:39AM 50.2104 -14.2105 104° East  Level FlightAware Approximate
04:40AM 50.1741 -13.9905 104° East  Level FlightAware Approximate
04:41AM 50.1374 -13.7709 105° East  Level FlightAware Approximate
04:42AM 50.1003 -13.5515 105° East  Level FlightAware Approximate
04:43AM 50.0628 -13.3326 105° East  Level FlightAware Approximate
04:44AM 50.0249 -13.1139 105° East  Level FlightAware Approximate
04:45AM 49.9866 -12.8956 105° East  Level FlightAware Approximate
04:46AM 49.9478 -12.6777 105° East  Level FlightAware Approximate
04:47AM 49.9087 -12.4601 106° East  Level FlightAware Approximate
04:48AM 49.8691 -12.2429 106° East  Level FlightAware Approximate
04:49AM 49.8292 -12.0260 106° East  Level FlightAware Approximate
04:49AM 50.3180 -11.5130 106° East 495 570 37,100  Level FlightAware
04:50AM 49.7888 -11.8095 106° East  Level FlightAware Approximate
04:50AM 50.3020 -11.4420 109° East 493 567 37,100  Level FlightAware
04:51AM 50.2850 -11.3700 110° East 491 565 37,100  Level FlightAware
04:52AM 50.2310 -11.1230 109° East 487 560 37,100  Level FlightAware
04:52AM 50.1920 -10.9320 108° East 486 559 37,100  Level FlightAware
04:53AM 50.1700 -10.8210 107° East 486 559 37,100  Level FlightAware
04:54AM 50.1450 -10.6900 107° East 486 559 37,100  Level FlightAware
04:54AM 50.1240 -10.5840 107° East 486 559 37,100  Level FlightAware
04:55AM 50.1010 -10.4650 107° East 486 559 37,100  Level FlightAware
04:56AM 50.0740 -10.3280 107° East 486 559 37,100  Level FlightAware
04:57AM 49.9960 -10.0670 115° Southeast 492 566 37,100  Level FlightAware
04:57AM 49.9590 -9.9180 111° Southeast 492 566 37,100  Level FlightAware
04:58AM 49.9250 -9.7840 111° Southeast 493 567 37,100  Level FlightAware
04:59AM 49.8930 -9.6540 111° Southeast 493 567 37,100  Level FlightAware
04:59AM 49.8550 -9.5050 112° Southeast 494 568 37,100  Level FlightAware
05:00AM 49.8080 -9.3220 112° Southeast 491 565 37,100  Level FlightAware
05:01AM 49.7770 -9.2030 112° Southeast 490 564 37,100  Level FlightAware
05:02AM 49.7410 -9.0630 112° Southeast 490 564 37,100 -120 Level FlightAware
05:02AM 49.6906 -8.8994 112° Southeast 492 566 37,000  Descending FlightAware UK
05:02AM 49.7020 -8.9140 112° Southeast 489 563 37,100 120 Climbing FlightAware
05:03AM 49.6690 -8.7870 112° Southeast 489 563 37,100  Level FlightAware
05:04AM 49.6310 -8.6430 112° Southeast 489 563 37,100 -120 Level FlightAware
05:04AM 49.5890 -8.5117 112° Southeast 490 564 37,000  Descending FlightAware UK
05:04AM 49.5970 -8.5140 112° Southeast 489 563 37,100 120 Climbing FlightAware
05:05AM 49.5610 -8.3770 112° Southeast 490 564 37,100  Level FlightAware
05:06AM 49.5290 -8.2530 112° Southeast 488 562 37,100 -180 Level FlightAware
05:06AM 49.5122 -8.2217 112° Southeast 492 566 37,000 -240 Descending FlightAware UK
05:06AM 49.4865 -8.1252 112° Southeast 494 568 37,000 120 Level FlightAware UK
05:07AM 49.4900 -8.1070 112° Southeast 490 564 37,100 60 Climbing FlightAware
05:07AM 49.4510 -7.9650 113° Southeast 491 565 37,100 -120 Level FlightAware
05:08AM 49.4018 -7.8397 113° Southeast 490 564 37,000  Descending FlightAware UK
05:08AM 49.4090 -7.8410 113° Southeast 492 566 37,100 120 Climbing FlightAware
05:09AM 49.3620 -7.7070 118° Southeast 492 566 37,100 -120 Level FlightAware
05:09AM 49.3029 -7.5654 118° Southeast 496 571 37,000  Descending FlightAware UK
05:09AM 49.3170 -7.5850 118° Southeast 492 566 37,100  Climbing FlightAware
05:10AM 49.2689 -7.4751 118° Southeast 490 564 37,000  Descending FlightAware UK
05:10AM 49.2770 -7.4770 118° Southeast 492 566 37,100  Climbing FlightAware
05:11AM 49.2021 -7.2929 118° Southeast 492 566 37,000 -120 Descending FlightAware UK
05:11AM 49.1620 -7.1831 119° Southeast 492 566 37,000 120 Level FlightAware UK
05:11AM 49.1810 -7.2140 119° Southeast 498 573 37,100 120 Climbing FlightAware
05:12AM 49.1270 -7.0670 119° Southeast 500 575 37,100  Level FlightAware
05:13AM 49.0800 -6.9410 120° Southeast 504 580 37,100 -120 Level FlightAware
05:13AM 49.0258 -6.8133 120° Southeast 500 575 37,000  Descending FlightAware UK
05:14AM 49.0320 -6.8140 120° Southeast 504 580 37,100 120 Climbing FlightAware
05:14AM 48.9830 -6.6830 120° Southeast 504 580 37,100  Level FlightAware
05:15AM 48.9350 -6.5540 120° Southeast 505 581 37,100 -180 Level FlightAware
05:15AM 48.9209 -6.5364 120° Southeast 496 571 37,000 -240 Descending FlightAware UK
05:15AM 48.8858 -6.4447 120° Southeast 500 575 37,000 120 Level FlightAware UK
05:16AM 48.8880 -6.4320 120° Southeast 504 580 37,100 60 Climbing FlightAware
05:16AM 48.8320 -6.2850 120° Southeast 506 582 37,100 -120 Level FlightAware
05:17AM 48.7805 -6.1696 120° Southeast 492 566 37,000  Descending FlightAware UK
05:17AM 48.7850 -6.1620 120° Southeast 508 585 37,100 120 Climbing FlightAware
05:18AM 48.7370 -6.0370 120° Southeast 509 586 37,100 -120 Level FlightAware
05:18AM 48.6739 -5.8937 120° Southeast 510 587 37,000  Descending FlightAware UK
05:18AM 48.6860 -5.9050 120° Southeast 507 583 37,100  Climbing FlightAware
05:19AM 48.6380 -5.8016 120° Southeast 508 585 37,000  Descending FlightAware UK
05:19AM 48.6360 -5.7760 120° Southeast 503 579 37,100 120 Climbing FlightAware
05:20AM 48.5940 -5.6670 120° Southeast 499 574 37,100  Level FlightAware
05:21AM 48.5500 -5.5560 120° Southeast 495 570 37,100 -180 Level FlightAware
05:21AM 48.5251 -5.5145 120° Southeast 506 582 37,000 -240 Descending FlightAware UK
05:21AM 48.4912 -5.4275 120° Southeast 504 580 37,000 120 Level FlightAware UK
05:21AM 48.4900 -5.4040 120° Southeast 493 567 37,100  Climbing FlightAware
05:22AM 48.4425 -5.3047 120° Southeast 498 573 37,000  Descending FlightAware UK
05:22AM 48.4390 -5.2740 120° Southeast 493 567 37,100 60 Climbing FlightAware
05:23AM 48.3920 -5.1560 121° Southeast 494 568 37,100 -120 Level FlightAware
05:23AM 48.3300 -5.0228 121° Southeast 500 575 37,000  Descending FlightAware UK
05:23AM 48.3400 -5.0260 121° Southeast 492 566 37,100 120 Climbing FlightAware
05:24AM 48.2930 -4.9090 121° Southeast 494 568 37,100 -120 Level FlightAware
05:25AM 48.2167 -4.7419 121° Southeast 498 573 37,000  Descending FlightAware UK
05:26AM 48.1880 -4.6480 121° Southeast 502 578 37,100  Climbing FlightAware
05:27AM 48.0910 -4.4090 121° Southeast 507 583 37,100  Level FlightAware
05:28AM 48.0410 -4.2850 121° Southeast 510 587 37,100  Level FlightAware
05:28AM 47.9950 -4.1750 122° Southeast 511 588 37,100  Level FlightAware
05:29AM 47.9360 -4.0320 122° Southeast 511 588 37,100  Level FlightAware
05:30AM 47.8940 -3.9310 122° Southeast 508 585 37,100  Level FlightAware
05:30AM 47.8310 -3.7810 122° Southeast 504 580 37,100  Level FlightAware
05:31AM 47.7800 -3.6610 122° Southeast 502 578 37,100  Level FlightAware
05:32AM 47.7290 -3.5390 122° Southeast 501 577 37,100  Level FlightAware
05:32AM 47.6770 -3.4160 122° Southeast 499 574 37,100  Level FlightAware
05:33AM 47.6300 -3.3050 122° Southeast 500 575 37,100  Level FlightAware
05:34AM 47.5720 -3.1700 122° Southeast 499 574 37,100  Level FlightAware
05:35AM 47.5220 -3.0540 123° Southeast 498 573 37,100  Level FlightAware
05:35AM 47.4730 -2.9380 122° Southeast 499 574 37,100  Level FlightAware
05:36AM 47.4170 -2.8090 123° Southeast 501 577 37,100  Level FlightAware
05:37AM 47.3670 -2.6940 123° Southeast 502 578 37,100  Level FlightAware
05:37AM 47.3180 -2.5820 123° Southeast 502 578 37,100  Level FlightAware
05:38AM 47.3080 -2.5590 123° Southeast 502 578 37,100  Level FlightAware
05:39AM 47.2060 -2.3280 123° Southeast 501 577 37,100  Level FlightAware
05:39AM 47.1580 -2.2190 123° Southeast 502 578 37,100  Level FlightAware
05:41AM 47.0670 -2.0170 123° Southeast 501 577 37,100  Level FlightAware
05:41AM 47.0090 -1.8870 123° Southeast 501 577 37,100  Level FlightAware
05:42AM 46.9530 -1.7620 123° Southeast 500 575 37,100  Level FlightAware
05:43AM 46.9140 -1.6760 124° Southeast 500 575 37,100  Level FlightAware
05:43AM 46.8490 -1.5340 124° Southeast 500 575 37,100  Level FlightAware
05:44AM 46.7950 -1.4150 124° Southeast 499 574 37,100  Level FlightAware
05:45AM 46.7420 -1.2990 124° Southeast 498 573 37,100  Level FlightAware
05:45AM 46.6900 -1.1860 124° Southeast 498 573 37,100  Level FlightAware
05:46AM 46.6440 -1.0620 118° Southeast 499 574 37,100  Level FlightAware
05:47AM 46.6070 -0.9230 111° Southeast 500 575 37,100  Level FlightAware
05:48AM 46.5750 -0.7990 111° Southeast 500 575 37,100  Level FlightAware
05:48AM 46.5320 -0.6360 111° Southeast 500 575 37,100  Level FlightAware
05:49AM 46.4950 -0.5000 112° Southeast 500 575 37,100  Level FlightAware
05:50AM 46.4490 -0.3260 111° Southeast 499 574 37,100  Level FlightAware
05:51AM 46.4140 -0.1980 112° Southeast 498 573 37,100  Level FlightAware
05:52AM 46.3770 -0.0640 112° Southeast 496 571 37,100  Level FlightAware
05:52AM 46.3430 0.0620 111° Southeast 495 570 37,100  Level FlightAware
05:53AM 46.3070 0.1900 112° Southeast 491 565 37,100  Level FlightAware
05:54AM 46.2680 0.3300 112° Southeast 491 565 37,100  Level FlightAware
05:54AM 46.2390 0.4360 112° Southeast 494 568 37,100  Level FlightAware
05:55AM 46.2000 0.5740 112° Southeast 491 565 37,100  Level FlightAware
05:56AM 46.1700 0.6830 112° Southeast 493 567 37,100  Level FlightAware
05:57AM 46.1180 0.8680 112° Southeast 37,100  Level FlightAware
05:58AM 46.0650 1.0600 112° Southeast 492 566 37,100  Level FlightAware
05:58AM 46.0350 1.1650 112° Southeast 489 563 37,100  Level FlightAware
05:59AM 46.0030 1.2810 112° Southeast 491 565 37,100  Level FlightAware
06:00AM 45.9650 1.4200 111° Southeast 492 566 37,100  Level FlightAware
06:00AM 45.9260 1.5620 112° Southeast 491 565 37,100  Level FlightAware
06:01AM 45.8890 1.6910 112° Southeast 489 563 37,100  Level FlightAware
06:02AM 45.8580 1.8040 111° Southeast 489 563 37,100  Level FlightAware
06:02AM 45.8230 1.9290 112° Southeast 489 563 37,100  Level FlightAware
06:03AM 45.7790 2.0880 112° Southeast 490 564 37,100  Level FlightAware
06:04AM 45.7390 2.2330 112° Southeast 487 560 37,100  Level FlightAware
06:05AM 45.7060 2.3480 112° Southeast 486 559 37,100  Level FlightAware
06:06AM 45.6680 2.4850 112° Southeast 483 556 37,100  Level FlightAware
06:06AM 45.6320 2.6100 112° Southeast 481 554 37,100  Level FlightAware
06:07AM 45.5970 2.7320 112° Southeast 480 552 37,100  Level FlightAware
06:08AM 45.5670 2.8380 112° Southeast 480 552 37,100  Level FlightAware
06:08AM 45.5280 2.9650 114° Southeast 478 550 37,100  Level FlightAware
06:09AM 45.4710 3.1230 117° Southeast 478 550 37,100  Level FlightAware
06:10AM 45.4100 3.2860 118° Southeast 478 550 37,100  Level FlightAware
06:11AM 45.3490 3.4490 118° Southeast 479 551 37,100  Level FlightAware
06:12AM 45.2900 3.6050 118° Southeast 482 555 37,100  Level FlightAware
06:13AM 45.2490 3.7120 119° Southeast 484 557 37,100  Level FlightAware
06:13AM 45.2020 3.8340 119° Southeast 484 557 37,100  Level FlightAware
06:14AM 45.1580 3.9470 119° Southeast 484 557 37,100  Level FlightAware
06:15AM 45.1170 4.0550 118° Southeast 485 558 37,100  Level FlightAware
06:16AM 45.0740 4.1650 119° Southeast 486 559 37,100  Level FlightAware
06:16AM 45.0190 4.3050 119° Southeast 487 560 37,100  Level FlightAware
06:17AM 44.9670 4.4410 118° Southeast 486 559 37,100  Level FlightAware
06:18AM 44.9180 4.5470 123° Southeast 483 556 37,100  Level FlightAware
06:18AM 44.8680 4.6530 124° Southeast 479 551 37,100  Level FlightAware
06:19AM 44.8120 4.7700 124° Southeast 484 557 37,100  Level FlightAware
06:21AM 44.6980 4.9720 128° Southeast 483 556 37,100  Level FlightAware
06:21AM 44.6350 5.0690 132° Southeast 483 556 37,100  Level FlightAware
06:22AM 44.5730 5.1670 132° Southeast 483 556 37,100 -120 Level FlightAware
06:23AM 44.5090 5.2690 131° Southeast 479 551 37,000  Descending FlightAware
06:23AM 44.4600 5.3790 122° Southeast 482 555 37,100 60 Climbing FlightAware
06:24AM 44.4080 5.4980 121° Southeast 484 557 37,100  Level FlightAware
06:25AM 44.3600 5.6040 122° Southeast 483 556 37,100  Level FlightAware
06:26AM 44.3050 5.7270 122° Southeast 484 557 37,100  Level FlightAware
06:26AM 44.2460 5.8470 124° Southeast 483 556 37,100  Level FlightAware
06:27AM 44.1710 6.0120 122° Southeast 487 560 37,100  Level FlightAware
06:28AM 44.1220 6.1200 122° Southeast 489 563 37,100  Level FlightAware
06:29AM 44.0710 6.2340 122° Southeast 492 566 37,100  Level FlightAware
06:30AM 44.0150 6.3620 121° Southeast 493 567 37,100  Level FlightAware
06:30AM 43.9820 6.4360 122° Southeast 495 570 37,100  Level FlightAware
06:31AM 43.8830 6.6630 121° Southeast 499 574 37,100  Level FlightAware
06:32AM 43.8410 6.7630 120° Southeast 499 574 37,100  Level FlightAware
06:33AM 43.7860 6.8970 120° Southeast 498 573 37,100  Level FlightAware
06:33AM 43.7380 7.0050 122° Southeast 496 571 37,100  Level FlightAware
06:34AM 43.6830 7.1290 121° Southeast 493 567 37,100  Level FlightAware
06:35AM 43.6420 7.2230 121° Southeast 492 566 37,100  Level FlightAware
06:36AM 43.5810 7.3630 121° Southeast 492 566 37,100  Level FlightAware
06:37AM 43.5570 7.5330 101° East 501 577 37,100  Level FlightAware
06:37AM 43.5300 7.6540 107° East 499 574 37,100  Level FlightAware
06:38AM 43.5040 7.7780 106° East 501 577 37,100  Level FlightAware
06:39AM 43.4740 7.9110 107° East 502 578 37,100  Level FlightAware
06:39AM 43.4470 8.0310 107° East 501 577 37,100  Level FlightAware
06:40AM 43.4270 8.1050 110° East 501 577 37,100  Level FlightAware
06:41AM 43.3570 8.3360 113° Southeast 500 575 37,100  Level FlightAware
06:42AM 43.3100 8.4530 119° Southeast 494 568 37,100  Level FlightAware
06:42AM 43.2560 8.5460 129° Southeast 485 558 37,100  Level FlightAware
06:43AM 43.1880 8.6420 134° Southeast 479 551 37,100  Level FlightAware
06:44AM 43.1250 8.7310 134° Southeast 478 550 37,100  Level FlightAware
06:44AM 43.0850 8.7880 134° Southeast 479 551 37,100  Level FlightAware
06:45AM 43.0210 8.8790 134° Southeast 480 552 37,100  Level FlightAware
06:46AM 42.9520 8.9750 134° Southeast 480 552 37,100  Level FlightAware
06:46AM 42.8890 9.0650 134° Southeast 480 552 37,100  Level FlightAware
06:47AM 42.8380 9.1360 134° Southeast 481 554 37,100  Level FlightAware
06:48AM 42.7540 9.2530 134° Southeast 483 556 37,100  Level FlightAware
06:48AM 42.6940 9.3370 134° Southeast 484 557 37,100  Level FlightAware
06:49AM 42.6200 9.4400 134° Southeast 485 558 37,100  Level FlightAware
06:50AM 42.5710 9.5490 121° Southeast 504 580 37,100  Level FlightAware
06:51AM 42.5380 9.6730 110° East 506 582 37,100  Level FlightAware
06:51AM 42.5080 9.7920 109° East 507 583 37,100  Level FlightAware
06:52AM 42.4750 9.9180 110° East 509 586 37,100  Level FlightAware
06:53AM 42.4390 10.0560 109° East 509 586 37,100  Level FlightAware
06:53AM 42.4060 10.1750 111° Southeast 509 586 37,100  Level FlightAware
06:54AM 42.3700 10.3090 110° East 510 587 37,100  Level FlightAware
06:55AM 42.3470 10.3920 111° Southeast 510 587 37,100  Level FlightAware
06:55AM 42.3150 10.5100 110° East 510 587 37,100  Level FlightAware
06:56AM 42.2810 10.6330 110° East 510 587 37,100  Level FlightAware
06:57AM 42.2450 10.7620 111° Southeast 510 587 37,100  Level FlightAware
06:57AM 42.2120 10.8790 111° Southeast 512 589 37,100  Level FlightAware
06:58AM 42.1760 11.0070 111° Southeast 514 592 37,100  Level FlightAware
06:59AM 42.1380 11.1430 111° Southeast 516 594 37,100  Level FlightAware
06:59AM 42.1110 11.2380 111° Southeast 514 592 37,100  Level FlightAware
07:00AM 42.0600 11.3890 114° Southeast 508 585 37,100  Level FlightAware
07:01AM 42.0170 11.4620 128° Southeast 494 568 37,100 -60 Level FlightAware
07:02AM 41.8740 11.6660 133° Southeast 500 575 37,000 -120 Descending FlightAware
07:03AM 41.8030 11.7690 133° Southeast 499 574 37,000  Level FlightAware
07:04AM 41.7740 11.8100 133° Southeast 498 573 37,000  Level FlightAware
07:04AM 41.6690 11.9580 133° Southeast 492 566 37,000  Level FlightAware
07:05AM 41.6290 12.0130 134° Southeast 498 573 37,000  Level FlightAware
07:06AM 41.5640 12.1020 134° Southeast 490 564 37,000  Level FlightAware
07:06AM 41.4620 12.2440 134° Southeast 489 563 37,000  Level FlightAware
07:07AM 41.3950 12.3370 134° Southeast 488 562 37,000  Level FlightAware
07:08AM 41.3220 12.4370 134° Southeast 495 570 37,000  Level FlightAware
07:09AM 41.2580 12.5400 130° Southeast 503 579 37,000  Level FlightAware
07:09AM 41.2120 12.6480 119° Southeast 503 579 37,000  Level FlightAware
07:10AM 41.1390 12.8060 121° Southeast 502 578 37,000  Level FlightAware
07:11AM 41.0950 12.8960 123° Southeast 502 578 37,000  Level FlightAware
07:12AM 41.0560 12.9740 124° Southeast 503 579 37,000  Level FlightAware
07:12AM 40.9930 13.1020 123° Southeast 505 581 37,000  Level FlightAware
07:13AM 40.9400 13.2160 122° Southeast 506 582 37,000  Level FlightAware
07:14AM 40.8840 13.3380 121° Southeast 506 582 37,000  Level FlightAware
07:14AM 40.8410 13.4300 122° Southeast 507 583 37,000  Level FlightAware
07:15AM 40.7840 13.5520 122° Southeast 507 583 37,000  Level FlightAware
07:16AM 40.7280 13.6680 122° Southeast 505 581 37,000  Level FlightAware
07:16AM 40.6920 13.7460 121° Southeast 506 582 37,000  Level FlightAware
07:17AM 40.6400 13.8560 122° Southeast 508 585 37,000  Level FlightAware
07:18AM 40.5940 13.9530 122° Southeast 509 586 37,000  Level FlightAware
07:18AM 40.5370 14.0720 122° Southeast 509 586 37,000  Level FlightAware
07:19AM 40.4860 14.1780 122° Southeast 510 587 37,000  Level FlightAware
07:20AM 40.4410 14.2730 122° Southeast 511 588 37,000  Level FlightAware
07:21AM 40.4080 14.3410 122° Southeast 511 588 37,000  Level FlightAware
07:22AM 40.2890 14.5840 123° Southeast 512 589 37,000  Level FlightAware
07:22AM 40.2400 14.6860 122° Southeast 510 587 37,000  Level FlightAware
07:23AM 40.1830 14.8030 122° Southeast 509 586 37,000  Level FlightAware
07:24AM 40.1320 14.9080 122° Southeast 509 586 37,000  Level FlightAware
07:24AM 40.0800 15.0130 123° Southeast 509 586 37,000  Level FlightAware
07:25AM 40.0380 15.0990 123° Southeast 509 586 37,000  Level FlightAware
07:26AM 39.9760 15.2440 119° Southeast 512 589 37,000  Level FlightAware
07:27AM 39.9340 15.3540 116° Southeast 513 590 37,000  Level FlightAware
07:27AM 39.8910 15.4720 115° Southeast 516 594 37,000  Level FlightAware
07:28AM 39.8470 15.5940 115° Southeast 517 595 37,000  Level FlightAware
07:29AM 39.8080 15.7030 115° Southeast 518 596 37,000  Level FlightAware
07:29AM 39.7610 15.8320 115° Southeast 519 597 37,000  Level FlightAware
07:30AM 39.7360 15.9000 116° Southeast 519 597 37,000  Level FlightAware
07:31AM 39.6900 16.0260 115° Southeast 520 598 37,000  Level FlightAware
07:31AM 39.6490 16.1390 115° Southeast 521 600 37,000  Level FlightAware
07:32AM 39.6050 16.2580 116° Southeast 520 598 37,000  Level FlightAware
07:33AM 39.5640 16.3690 116° Southeast 519 597 37,000  Level FlightAware
07:33AM 39.5180 16.4920 116° Southeast 518 596 37,000  Level FlightAware
07:34AM 39.4740 16.6110 116° Southeast 519 597 37,000  Level FlightAware
07:35AM 39.4320 16.7220 116° Southeast 518 596 37,000  Level FlightAware
07:36AM 39.3860 16.8490 115° Southeast 519 597 37,000  Level FlightAware
07:36AM 39.3770 16.8700 119° Southeast 501 577 37,000  Level FlightAware
07:36AM 39.3640 16.9030 117° Southeast 518 596 37,000  Level FlightAware
07:37AM 39.3180 17.0280 115° Southeast 519 597 37,000  Level FlightAware
07:37AM 39.2600 17.1790 116° Southeast 518 596 37,000  Level FlightAware
07:38AM 39.2160 17.2960 116° Southeast 519 597 37,000  Level FlightAware
07:39AM 39.1680 17.4200 117° Southeast 519 597 37,000  Level FlightAware
07:40AM 39.1130 17.5640 116° Southeast 519 597 37,000  Level FlightAware
07:41AM 39.0640 17.6900 117° Southeast 519 597 37,000  Level FlightAware
07:41AM 39.0140 17.8200 116° Southeast 519 597 37,000  Level FlightAware
07:42AM 38.9560 17.9710 116° Southeast 519 597 37,000  Level FlightAware
07:43AM 38.9150 18.0780 116° Southeast 519 597 37,000  Level FlightAware
07:44AM 38.8590 18.2190 117° Southeast 519 597 37,000  Level FlightAware
07:45AM 38.8190 18.3210 117° Southeast 519 597 37,000  Level FlightAware
07:45AM 38.9600 17.9600 297° West 37,000  Level FlightAware
07:46AM 38.7740 18.4320 117° Southeast 523 602 37,000  Level FlightAware
07:46AM 38.7040 18.6100 117° Southeast 519 597 37,000  Level FlightAware
07:47AM 38.6530 18.7390 117° Southeast 519 597 37,000  Level FlightAware
07:48AM 38.6090 18.8460 118° Southeast 521 600 37,000  Level FlightAware
07:48AM 38.5670 18.9500 117° Southeast 521 600 37,000  Level FlightAware
07:49AM 38.5220 19.0680 116° Southeast 521 600 37,000  Level FlightAware
07:50AM 38.4880 19.1570 116° Southeast 521 600 37,000  Level FlightAware
07:51AM 38.4510 19.3600 103° East 521 600 37,000  Level FlightAware
07:51AM 38.4180 19.4880 108° East 521 600 37,000  Level FlightAware
07:52AM 38.3860 19.6080 109° East 520 598 37,000  Level FlightAware
07:53AM 38.3570 19.7150 109° East 520 598 37,000  Level FlightAware
07:53AM 38.3230 19.8400 109° East 520 598 37,000  Level FlightAware
07:54AM 38.2860 19.9790 109° East 521 600 37,000  Level FlightAware
07:55AM 38.2690 20.0380 110° East 521 600 37,000  Level FlightAware
07:56AM 38.2260 20.1970 109° East 522 601 37,000  Level FlightAware
07:56AM 38.1970 20.3030 109° East 522 601 37,000  Level FlightAware
07:57AM 38.1720 20.3940 109° East 522 601 37,000  Level FlightAware
07:58AM 38.1420 20.5080 108° East 522 601 37,000  Level FlightAware
07:58AM 38.0600 20.7230 116° Southeast 520 598 37,000 60 Level FlightAware
07:59AM 38.0220 20.8260 115° Southeast 523 602 37,100 60 Climbing FlightAware
07:59AM 37.9960 20.8940 116° Southeast 523 602 37,100  Level FlightAware
08:00AM 37.9510 21.0100 116° Southeast 521 600 37,100  Level FlightAware
08:01AM 37.9150 21.1070 115° Southeast 521 600 37,100  Level FlightAware
08:02AM 37.8750 21.2170 115° Southeast 521 600 37,100  Level FlightAware
08:02AM 37.8430 21.3040 115° Southeast 521 600 37,100  Level FlightAware
08:03AM 37.8010 21.4170 115° Southeast 521 600 37,100  Level FlightAware
08:04AM 37.7490 21.5580 115° Southeast 521 600 37,100  Level FlightAware
08:05AM 37.7170 21.6450 115° Southeast 521 600 37,100  Level FlightAware
08:05AM 37.6820 21.7390 115° Southeast 521 600 37,100  Level FlightAware
08:06AM 37.5620 22.0080 119° Southeast 534 615 37,100  Level FlightAware
08:07AM 37.5280 22.0960 116° Southeast 534 615 37,100  Level FlightAware
08:07AM 37.4830 22.2120 116° Southeast 534 615 37,100  Level FlightAware
08:08AM 37.4300 22.3420 117° Southeast 540 621 37,100  Level FlightAware
08:09AM 37.3960 22.4370 114° Southeast 540 621 37,100  Level FlightAware
08:10AM 37.3560 22.5520 114° Southeast 540 621 37,100  Level FlightAware
08:10AM 37.3290 22.6840 104° East 537 618 37,100  Level FlightAware
08:11AM 37.2800 22.8480 111° Southeast 540 621 37,100  Level FlightAware
08:12AM 37.2410 22.9770 111° Southeast 540 621 37,100  Level FlightAware
08:12AM 37.2040 23.1010 111° Southeast 540 621 37,100 240 Level FlightAware
08:13AM 37.1700 23.2150 110° East 545 627 37,500 660 Climbing FlightAware
08:14AM 37.1300 23.3470 111° Southeast 550 633 38,100 900 Climbing FlightAware
08:14AM 37.0900 23.4780 111° Southeast 549 632 38,900 660 Climbing FlightAware
08:15AM 37.0540 23.5970 111° Southeast 551 634 39,100 120 Climbing FlightAware
08:16AM 37.0150 23.7240 111° Southeast 552 635 39,100  Level FlightAware
08:16AM 36.9810 23.8370 111° Southeast 551 634 39,100  Level FlightAware
08:17AM 36.9400 23.9690 111° Southeast 551 634 39,100  Level FlightAware
08:18AM 36.9000 24.0970 111° Southeast 550 633 39,100  Level FlightAware
08:19AM 36.8610 24.2220 111° Southeast 550 633 39,100  Level FlightAware
08:19AM 36.8210 24.3470 112° Southeast 550 633 39,100  Level FlightAware
08:20AM 36.7880 24.4540 111° Southeast 551 634 39,100  Level FlightAware
08:21AM 36.7730 24.5010 112° Southeast 551 634 39,100  Level FlightAware
08:22AM 36.6840 24.7530 114° Southeast 549 632 39,100  Level FlightAware
08:22AM 36.6400 24.8700 115° Southeast 549 632 39,100  Level FlightAware
08:23AM 36.5900 25.0030 115° Southeast 549 632 39,100  Level FlightAware
08:24AM 36.5450 25.1240 115° Southeast 550 633 39,100  Level FlightAware
08:24AM 36.5030 25.2370 115° Southeast 551 634 39,100  Level FlightAware
08:26AM 36.4660 25.3360 115° Southeast 551 634 39,100  Level FlightAware
08:26AM 36.3870 25.5480 115° Southeast 551 634 39,100  Level FlightAware
08:27AM 36.3420 25.6690 115° Southeast 551 634 39,100  Level FlightAware
08:28AM 36.2990 25.7840 115° Southeast 551 634 39,100  Level FlightAware
08:28AM 36.2530 25.9050 115° Southeast 551 634 39,100  Level FlightAware
08:29AM 36.2070 26.0260 115° Southeast 551 634 39,100  Level FlightAware
08:31AM 36.1130 26.2760 115° Southeast 551 634 39,100  Level FlightAware
08:31AM 36.0870 26.3450 115° Southeast 551 634 39,100  Level FlightAware
08:32AM 36.0210 26.5170 115° Southeast 551 634 39,100  Level FlightAware
08:33AM 35.9760 26.6330 116° Southeast 551 634 39,100  Level FlightAware
08:33AM 35.9290 26.7550 115° Southeast 550 633 39,100  Level FlightAware
08:34AM 35.8930 26.8480 116° Southeast 550 633 39,100  Level FlightAware
08:35AM 35.8210 27.0300 116° Southeast 550 633 39,100  Level FlightAware
08:36AM 35.7690 27.1630 116° Southeast 549 632 39,100  Level FlightAware
08:37AM 35.7210 27.2850 116° Southeast 550 633 39,100  Level FlightAware
08:37AM 35.6790 27.3940 115° Southeast 550 633 39,100  Level FlightAware
08:38AM 35.6570 27.4540 114° Southeast 550 633 39,100  Level FlightAware
08:38AM 35.6260 27.5360 115° Southeast 550 633 39,100  Level FlightAware
08:39AM 35.5810 27.6540 115° Southeast 550 633 39,100  Level FlightAware
08:40AM 35.4960 27.8510 118° Southeast 551 634 39,100  Level FlightAware
08:41AM 35.4510 27.9620 116° Southeast 551 634 39,100  Level FlightAware
08:41AM 35.3920 28.1070 116° Southeast 553 636 39,100  Level FlightAware
08:42AM 35.3500 28.2110 116° Southeast 553 636 39,100  Level FlightAware
08:43AM 35.3000 28.3350 116° Southeast 553 636 39,100  Level FlightAware
08:43AM 35.2490 28.4590 117° Southeast 553 636 39,100  Level FlightAware
08:44AM 35.2060 28.5640 117° Southeast 553 636 39,100  Level FlightAware
08:45AM 35.1580 28.6820 116° Southeast 553 636 39,100  Level FlightAware
08:45AM 35.1120 28.7950 116° Southeast 548 631 39,100  Level FlightAware
08:46AM 35.0610 28.9170 117° Southeast 551 634 39,100  Level FlightAware
08:47AM 35.0090 29.0430 117° Southeast 550 633 39,100  Level FlightAware
08:48AM 34.9610 29.1600 117° Southeast 549 632 39,100  Level FlightAware
08:48AM 34.9320 29.2290 117° Southeast 548 631 39,100  Level FlightAware
08:49AM 34.8880 29.3330 117° Southeast 548 631 39,100  Level FlightAware
08:50AM 34.8040 29.5310 117° Southeast 544 626 39,100  Level FlightAware
08:50AM 34.7940 29.5560 116° Southeast 544 626 39,100  Level FlightAware
08:51AM 34.7290 29.7080 117° Southeast 543 625 39,100  Level FlightAware
08:52AM 34.6770 29.8310 117° Southeast 542 624 39,100  Level FlightAware
08:52AM 34.6300 29.9430 117° Southeast 542 624 39,100  Level FlightAware
08:53AM 34.5650 30.0800 120° Southeast 544 626 39,100  Level FlightAware
08:54AM 34.5170 30.1800 120° Southeast 544 626 39,100  Level FlightAware
08:55AM 34.4580 30.3030 120° Southeast 545 627 39,100  Level FlightAware
08:55AM 34.4060 30.4110 120° Southeast 546 628 39,100  Level FlightAware
08:56AM 34.3670 30.4920 120° Southeast 547 629 39,100  Level FlightAware
08:57AM 34.3000 30.6330 120° Southeast 547 629 39,100  Level FlightAware
08:58AM 34.2410 30.7580 120° Southeast 547 629 39,100  Level FlightAware
08:58AM 34.1960 30.8510 120° Southeast 548 631 39,100  Level FlightAware
08:59AM 34.1380 30.9700 120° Southeast 547 629 39,100  Level FlightAware
09:00AM 34.0880 31.0740 120° Southeast 547 629 39,100  Level FlightAware
09:00AM 34.0540 31.1430 121° Southeast 547 629 39,100  Level FlightAware
09:01AM 33.9760 31.3020 121° Southeast 548 631 39,100  Level FlightAware
09:02AM 33.9380 31.3820 120° Southeast 547 629 39,100  Level FlightAware
09:03AM 33.8140 31.6330 121° Southeast 545 627 39,100  Level FlightAware
09:04AM 33.7250 31.8120 121° Southeast 551 634 39,100  Level FlightAware
09:05AM 33.6840 31.8950 121° Southeast 551 634 39,100  Level FlightAware
09:06AM 33.6290 32.0060 121° Southeast 551 634 39,100  Level FlightAware
09:07AM 33.5690 32.1260 121° Southeast 552 635 39,100  Level FlightAware
09:08AM 33.5260 32.2120 121° Southeast 553 636 39,100 -840 Level FlightAware
09:09AM 33.3770 32.5090 121° Southeast 535 616 37,400 -1,860 Descending FlightAware
09:09AM 33.3180 32.6260 121° Southeast 531 611 35,700 -2,220 Descending FlightAware
09:10AM 33.2690 32.7230 121° Southeast 524 603 34,300 -2,040 Descending FlightAware
09:11AM 33.1810 32.8950 121° Southeast 510 587 31,900 -1,980 Descending FlightAware
09:12AM 33.1410 32.9740 121° Southeast 505 581 30,600 -1,980 Descending FlightAware
09:13AM 33.0910 33.0700 122° Southeast 498 573 29,100 -2,160 Descending FlightAware
09:15AM 32.9112 33.3043 124° Southeast  Level FlightAware Approximate
09:15AM 32.9260 33.3890 124° Southeast 435 501 23,900  Level FlightAware
09:18AM 32.6837 33.6940 125° Southeast  Level FlightAware Approximate
09:19AM 32.5992 33.8353 125° Southeast  Level FlightAware Approximate
09:19AM 32.8150 33.6050 125° Southeast 361 415 20,500  Level FlightAware
09:19AM 32.8090 33.6150 126° Southeast 359 413 20,400 -300 Descending FlightAware
09:20AM 32.8010 33.6310 121° Southeast 355 409 20,100 -480 Descending FlightAware
09:21AM 32.7910 33.6500 122° Southeast 353 406 19,800 -300 Descending FlightAware
09:21AM 32.7670 33.6960 122° Southeast 350 403 19,700 -480 Descending FlightAware
09:22AM 32.7740 33.6830 303° West 347 399 19,300 -780 Descending FlightAware
09:22AM 32.7570 33.7140 123° Southeast 348 400 18,800 -2,100 Descending FlightAware
09:23AM 32.6670 33.8860 122° Southeast 352 405 16,100 -3,360 Descending FlightAware
09:24AM 32.5910 34.0310 122° Southeast 322 371 14,000 -3,960 Descending FlightAware
09:25AM 32.4590 34.2420 127° Southeast 293 337 10,800 -1,560 Descending FlightAware
09:27AM 32.2783 34.4986 123° Southeast  Level Estimated
09:27AM 32.4030 34.3060 123° Southeast 280 322 9,800  Level FlightAware
09:27AM 32.3230 34.3980 136° Southeast 278 320 8,300 -3,000 Descending FlightAware
09:30AM 32.0990 34.7017 125° Southeast  Level FlightAware Approximate
09:31AM 32.0147 34.8422 125° Southeast  Level FlightAware Approximate
09:32AM 32.0000 34.8667 125° Southeast  Level FlightAware Approximate
09:33AM 32.0095 34.8769 125° Southeast  Level Estimated
09:34AM 32.0095 34.8769 125° Southeast  Level Estimated
09:35AM 32.0095 34.8769 125° Southeast  Level Estimated
09:36AM 32.0095 34.8769 125° Southeast  Level Estimated
09:37AM 32.0095 34.8769 125° Southeast  Level Estimated
09:38AM 32.0095 34.8769 125° Southeast  Level Estimated